Time;durP1;ratioP1;P1;durP2;ratioP2;P2;SDS_P1;SDS_P2;PMS_P1;PMS_P2;Temp;Humidity;BMP_temperature;BMP_pressure;BME280_temperature;BME280_humidity;BME280_pressure;Samples;Min_cycle;Max_cycle;Signal;HPM_P1;HPM_P2
2022/01/18 16:29:08;;;;;;;21.40;9.65;;;9.00;71.70;;;;;;4957815;29;20680;-90
2022/01/18 16:31:36;;;;;;;49.47;8.40;;;8.80;71.80;;;;;;4958044;29;20184;-90
2022/01/18 16:34:04;;;;;;;17.17;7.07;;;8.70;72.10;;;;;;4943927;29;20188;-90
2022/01/18 16:36:30;;;;;;;26.48;6.00;;;8.80;72.50;;;;;;4943035;29;20235;-90
2022/01/18 16:38:56;;;;;;;18.10;6.90;;;8.80;72.70;;;;;;4941307;29;20183;-90
2022/01/18 16:41:22;;;;;;;26.38;6.93;;;8.70;73.00;;;;;;4941422;29;20173;-90
2022/01/18 16:43:47;;;;;;;20.20;5.80;;;8.50;73.30;;;;;;4941856;29;20180;-91
2022/01/18 16:46:13;;;;;;;16.07;6.70;;;8.60;73.70;;;;;;4945298;29;20523;-90
2022/01/18 16:48:39;;;;;;;21.83;8.13;;;8.50;73.90;;;;;;4942699;29;20235;-90
2022/01/18 16:51:05;;;;;;;19.85;7.05;;;8.50;74.00;;;;;;4942688;29;20196;-90
2022/01/18 16:53:32;;;;;;;14.70;6.27;;;8.50;74.20;;;;;;4949878;29;20192;-90
2022/01/18 16:55:57;;;;;;;24.23;8.52;;;8.50;74.30;;;;;;4945941;28;20209;-91
2022/01/18 16:58:29;;;;;;;31.60;11.30;;;8.40;74.50;;;;;;4945445;29;20216;-92
2022/01/18 17:00:55;;;;;;;38.58;14.95;;;8.40;74.60;;;;;;4946204;29;20204;-92
2022/01/18 17:03:21;;;;;;;33.43;14.20;;;8.30;74.80;;;;;;4953936;28;20184;-91
2022/01/18 17:05:47;;;;;;;34.90;12.53;;;8.30;75.00;;;;;;4965673;28;20192;-90
2022/01/18 17:08:13;;;;;;;29.50;8.90;;;8.40;75.10;;;;;;4947070;29;20228;-88
2022/01/18 17:10:40;;;;;;;17.93;6.97;;;8.50;74.90;;;;;;4944295;29;20502;-89
2022/01/18 17:13:06;;;;;;;28.63;10.88;;;8.40;74.60;;;;;;4942355;29;20424;-90
2022/01/18 17:15:32;;;;;;;25.13;11.18;;;8.40;74.50;;;;;;4948997;29;20712;-91
2022/01/18 17:17:58;;;;;;;22.97;10.83;;;8.30;74.60;;;;;;4950275;29;20173;-90
2022/01/18 17:20:24;;;;;;;27.53;11.50;;;8.40;74.50;;;;;;4960216;29;20451;-89
2022/01/18 17:22:50;;;;;;;25.33;10.67;;;8.40;74.50;;;;;;4957070;29;20433;-89
2022/01/18 17:25:15;;;;;;;32.05;11.52;;;8.30;74.70;;;;;;4957445;28;20428;-89
2022/01/18 17:27:41;;;;;;;34.87;11.73;;;8.30;74.70;;;;;;4948356;29;20204;-90
2022/01/18 17:30:07;;;;;;;20.70;11.17;;;8.30;74.60;;;;;;4944116;29;20610;-90
2022/01/18 17:32:33;;;;;;;27.83;11.02;;;8.20;74.60;;;;;;4955524;29;20231;-89
2022/01/18 17:34:59;;;;;;;38.53;12.10;;;8.30;74.60;;;;;;4958299;28;20656;-90
2022/01/18 17:37:25;;;;;;;47.50;16.02;;;8.30;74.40;;;;;;4948324;28;20228;-88
2022/01/18 17:39:51;;;;;;;57.40;19.23;;;8.30;74.40;;;;;;4950294;29;20261;-90
2022/01/18 17:42:17;;;;;;;47.10;22.52;;;8.30;74.30;;;;;;4941982;29;20239;-90
2022/01/18 17:44:42;;;;;;;40.03;17.23;;;8.20;74.30;;;;;;4940396;29;20255;-89
2022/01/18 17:47:08;;;;;;;37.00;15.40;;;8.20;74.50;;;;;;4945789;28;20473;-88
2022/01/18 17:49:34;;;;;;;40.00;16.87;;;8.10;74.80;;;;;;4955978;29;20431;-89
2022/01/18 17:52:00;;;;;;;35.53;17.47;;;8.00;75.00;;;;;;4952710;29;20431;-88
2022/01/18 17:54:26;;;;;;;28.87;13.77;;;8.00;75.00;;;;;;4943241;29;20176;-88
2022/01/18 17:56:52;;;;;;;34.80;12.48;;;8.00;75.30;;;;;;4940206;29;20204;-88
2022/01/18 17:59:17;;;;;;;34.97;12.70;;;7.90;75.50;;;;;;4941185;29;20180;-88
2022/01/18 18:01:44;;;;;;;25.27;11.60;;;7.90;75.90;;;;;;4941957;29;20416;-88
2022/01/18 18:04:09;;;;;;;26.58;11.90;;;7.80;76.10;;;;;;4956890;29;20424;-88
2022/01/18 18:06:35;;;;;;;31.97;11.37;;;7.70;76.30;;;;;;4939803;29;20204;-88
2022/01/18 18:09:02;;;;;;;28.30;12.10;;;7.60;76.80;;;;;;4946206;29;20562;-88
2022/01/18 18:11:30;;;;;;;32.95;11.52;;;7.40;77.10;;;;;;4971758;29;20420;-88
2022/01/18 18:13:56;;;;;;;36.80;13.63;;;7.50;77.40;;;;;;4945212;29;20180;-87
2022/01/18 18:16:22;;;;;;;40.27;15.87;;;7.40;77.70;;;;;;4947454;28;20220;-87
2022/01/18 18:18:48;;;;;;;38.40;14.20;;;7.30;78.20;;;;;;4972909;28;20478;-88
2022/01/18 18:21:14;;;;;;;33.67;10.90;;;7.30;78.40;;;;;;4964732;28;20207;-88
2022/01/18 18:23:39;;;;;;;28.90;10.90;;;7.30;78.60;;;;;;4979679;28;20658;-87
2022/01/18 18:26:05;;;;;;;27.07;11.53;;;7.30;78.80;;;;;;4961685;28;20222;-88
2022/01/18 18:28:31;;;;;;;28.67;10.87;;;7.30;78.90;;;;;;4961281;28;20490;-88
2022/01/18 18:30:57;;;;;;;25.37;11.30;;;7.20;79.00;;;;;;4948830;29;20431;-88
2022/01/18 18:33:24;;;;;;;20.70;10.47;;;7.20;79.20;;;;;;4946086;28;20212;-86
2022/01/18 18:35:50;;;;;;;33.72;11.15;;;7.30;79.30;;;;;;4956944;29;20476;-88
2022/01/18 18:38:18;;;;;;;29.70;10.90;;;7.40;79.90;;;;;;4963247;29;20176;-88
2022/01/18 18:40:55;;;;;;;28.27;11.63;;;7.30;79.10;;;;;;4947926;29;20416;-88
2022/01/18 18:43:29;;;;;;;30.38;11.85;;;7.40;79.10;;;;;;4944514;29;20644;-89
2022/01/18 18:45:56;;;;;;;34.90;11.50;;;7.30;79.20;;;;;;4943970;29;20272;-89
2022/01/18 18:48:22;;;;;;;23.08;9.43;;;7.20;79.30;;;;;;4958295;28;20188;-90
2022/01/18 18:50:49;;;;;;;34.53;10.73;;;7.20;79.40;;;;;;4960287;28;20176;-90
2022/01/18 18:53:16;;;;;;;28.92;11.43;;;7.20;79.70;;;;;;4961993;29;20416;-91
2022/01/18 18:55:43;;;;;;;32.95;11.05;;;7.40;79.90;;;;;;4945289;29;20208;-90
2022/01/18 18:58:16;;;;;;;24.10;11.25;;;7.60;79.30;;;;;;4942822;29;20180;-90
2022/01/18 19:01:04;;;;;;;30.67;13.05;;;7.80;79.00;;;;;;4945573;29;20641;-90
2022/01/18 19:03:34;;;;;;;28.45;12.10;;;8.00;78.20;;;;;;4942248;29;20598;-89
2022/01/18 19:06:01;;;;;;;26.48;11.38;;;8.20;77.60;;;;;;4943198;29;20263;-91
2022/01/18 19:08:29;;;;;;;25.27;11.60;;;8.10;77.30;;;;;;4946156;29;20195;-92
2022/01/18 19:10:58;;;;;;;25.42;11.63;;;8.10;77.20;;;;;;4952544;29;20180;-90
2022/01/18 19:13:28;;;;;;;28.58;14.93;;;8.00;77.10;;;;;;4962244;29;20619;-92
2022/01/18 19:15:54;;;;;;;62.38;26.30;;;8.30;77.00;;;;;;4948475;29;20284;-92
2022/01/18 19:18:24;;;;;;;47.90;19.10;;;8.30;76.40;;;;;;4952496;28;20212;-92
2022/01/18 19:21:02;;;;;;;35.70;18.88;;;8.20;76.10;;;;;;4948059;28;20469;-91
2022/01/18 19:23:30;;;;;;;32.60;16.40;;;8.10;76.20;;;;;;4953514;29;20185;-91
2022/01/18 19:25:56;;;;;;;33.28;13.45;;;8.10;76.40;;;;;;4962968;29;20195;-91
2022/01/18 19:28:22;;;;;;;41.30;16.63;;;8.20;76.40;;;;;;4955136;29;20232;-92
2022/01/18 19:30:50;;;;;;;24.85;14.23;;;8.20;76.30;;;;;;4948833;29;20188;-91
2022/01/18 19:33:16;;;;;;;30.90;13.63;;;7.90;76.40;;;;;;4973552;29;20220;-91
2022/01/18 19:35:42;;;;;;;33.60;12.85;;;7.90;76.80;;;;;;4948565;29;20557;-92
2022/01/18 19:38:08;;;;;;;26.30;13.43;;;7.90;77.00;;;;;;4947686;29;20204;-91
2022/01/18 19:40:34;;;;;;;23.80;13.20;;;7.90;77.00;;;;;;4973992;28;20211;-90
2022/01/18 19:43:01;;;;;;;33.67;13.73;;;7.80;77.20;;;;;;4959141;28;20431;-91
2022/01/18 19:45:33;;;;;;;41.63;15.52;;;7.50;77.60;;;;;;4953894;29;20204;-90
2022/01/18 19:48:02;;;;;;;34.45;14.60;;;7.30;78.20;;;;;;4969193;28;20183;-92
2022/01/18 19:50:33;;;;;;;37.40;16.73;;;7.40;78.60;;;;;;4968798;28;20195;-92
2022/01/18 19:53:05;;;;;;;27.27;14.18;;;7.50;78.60;;;;;;4967345;28;20180;-92
2022/01/18 19:55:35;;;;;;;34.50;13.70;;;7.60;78.70;;;;;;4964076;28;20199;-92
2022/01/18 19:58:09;;;;;;;34.13;15.38;;;7.60;78.50;;;;;;4965486;28;20168;-92
2022/01/18 20:00:44;;;;;;;38.13;15.10;;;7.60;78.60;;;;;;4951650;29;20193;-91
2022/01/18 20:03:18;;;;;;;27.77;13.50;;;7.50;78.70;;;;;;4961745;28;20168;-91
2022/01/18 20:05:45;;;;;;;42.03;14.23;;;7.60;78.70;;;;;;4950513;29;20281;-91
2022/01/18 20:08:16;;;;;;;28.10;15.90;;;7.70;78.70;;;;;;4957346;29;20181;-90
2022/01/18 20:10:48;;;;;;;36.33;15.07;;;7.80;78.20;;;;;;4969715;29;20230;-90
2022/01/18 20:13:17;;;;;;;33.00;15.63;;;7.70;78.00;;;;;;4984265;28;20208;-91
2022/01/18 20:15:49;;;;;;;30.10;14.80;;;7.70;78.10;;;;;;4969302;28;20713;-89
2022/01/18 20:18:15;;;;;;;22.90;13.20;;;7.70;78.00;;;;;;4965844;28;20671;-87
2022/01/18 20:20:43;;;;;;;27.20;14.50;;;7.80;77.80;;;;;;4967096;28;20231;-86
2022/01/18 20:23:09;;;;;;;39.55;13.25;;;7.70;77.60;;;;;;4968640;28;20192;-86
2022/01/18 20:25:36;;;;;;;30.80;13.43;;;7.50;77.70;;;;;;4956551;29;20219;-88
2022/01/18 20:28:03;;;;;;;29.02;14.60;;;7.40;78.00;;;;;;4942690;29;20232;-90
2022/01/18 20:30:29;;;;;;;29.95;15.13;;;7.30;78.40;;;;;;4941513;29;20185;-90
2022/01/18 20:32:55;;;;;;;29.67;14.77;;;7.30;78.70;;;;;;4939455;29;20184;-89
2022/01/18 20:35:25;;;;;;;34.30;16.20;;;7.20;78.70;;;;;;4940266;29;20790;-89
2022/01/18 20:37:56;;;;;;;39.35;15.40;;;7.10;79.00;;;;;;4958749;29;20176;-88
2022/01/18 20:40:27;;;;;;;27.08;14.18;;;6.90;79.30;;;;;;4959526;29;20168;-89
2022/01/18 20:45:40;;;;;;;32.83;15.35;;;6.80;79.80;;;;;;4959615;29;20291;-88
2022/01/18 20:48:07;;;;;;;39.15;18.58;;;6.70;80.20;;;;;;4944444;29;20276;-89
2022/01/18 20:50:47;;;;;;;28.17;15.48;;;6.70;80.40;;;;;;4943479;29;20197;-89
2022/01/18 20:53:15;;;;;;;37.75;17.23;;;6.70;80.50;;;;;;4943038;29;20181;-90
2022/01/18 20:55:42;;;;;;;31.05;15.70;;;6.70;80.60;;;;;;4942879;29;20223;-91
2022/01/18 20:58:08;;;;;;;43.05;18.45;;;6.60;80.70;;;;;;4943190;29;20259;-92
2022/01/18 21:00:34;;;;;;;32.80;17.57;;;6.70;80.80;;;;;;4946043;29;20652;-92
2022/01/18 21:02:59;;;;;;;33.33;17.13;;;6.70;80.60;;;;;;4949230;28;20440;-88
2022/01/18 21:05:35;;;;;;;31.00;16.90;;;6.70;80.70;;;;;;4954897;28;20852;-89
2022/01/18 21:08:02;;;;;;;35.65;18.95;;;6.80;80.40;;;;;;4940612;29;20178;-88
2022/01/18 21:10:29;;;;;;;43.92;21.90;;;6.80;80.20;;;;;;4945920;29;20276;-89
2022/01/18 21:12:56;;;;;;;53.80;21.80;;;6.70;80.20;;;;;;4948560;29;20263;-87
2022/01/18 21:15:22;;;;;;;39.15;21.20;;;6.70;80.30;;;;;;4969340;28;20187;-87
2022/01/18 21:17:49;;;;;;;40.60;19.00;;;6.60;80.30;;;;;;4952694;29;20204;-88
2022/01/18 21:20:15;;;;;;;48.25;20.27;;;6.50;80.60;;;;;;4949778;29;20272;-87
2022/01/18 21:22:42;;;;;;;49.13;21.15;;;6.50;80.80;;;;;;4945011;29;20180;-88
2022/01/18 21:25:10;;;;;;;46.28;21.70;;;6.50;80.90;;;;;;4943399;29;20180;-88
2022/01/18 21:27:37;;;;;;;40.47;20.17;;;6.40;81.10;;;;;;4948036;29;20286;-88
2022/01/18 21:30:08;;;;;;;41.60;20.85;;;6.20;81.20;;;;;;4942727;29;20609;-89
2022/01/18 21:32:36;;;;;;;48.67;22.30;;;6.20;81.50;;;;;;4943098;29;20188;-89
2022/01/18 21:35:06;;;;;;;43.28;21.38;;;6.20;81.70;;;;;;4942430;29;20185;-89
2022/01/18 21:37:32;;;;;;;39.95;20.83;;;6.40;81.60;;;;;;4947195;28;20299;-87
2022/01/18 21:39:57;;;;;;;47.13;22.77;;;6.60;81.30;;;;;;4967712;28;20195;-89
2022/01/18 21:42:23;;;;;;;41.70;23.50;;;6.50;81.00;;;;;;4965832;28;20443;-88
2022/01/18 21:44:52;;;;;;;40.90;21.83;;;6.50;80.80;;;;;;4963828;28;20514;-87
2022/01/18 21:47:19;;;;;;;51.15;22.38;;;6.50;80.50;;;;;;4964622;28;20203;-88
2022/01/18 21:49:45;;;;;;;51.20;21.80;;;6.50;80.40;;;;;;4964323;28;20180;-88
2022/01/18 21:52:11;;;;;;;52.10;24.48;;;6.40;80.50;;;;;;4963413;28;20259;-88
2022/01/18 21:54:43;;;;;;;54.77;26.53;;;6.10;80.90;;;;;;4963148;28;20203;-87
2022/01/18 21:57:12;;;;;;;49.85;22.52;;;5.90;81.40;;;;;;4965261;28;20238;-87
2022/01/18 21:59:38;;;;;;;48.75;24.35;;;5.80;81.90;;;;;;4961506;28;20258;-87
2022/01/18 22:02:04;;;;;;;55.30;22.10;;;5.70;82.50;;;;;;4963037;28;20266;-88
2022/01/18 22:04:30;;;;;;;56.75;23.42;;;5.70;83.00;;;;;;4959686;28;20412;-87
2022/01/18 22:06:55;;;;;;;45.87;23.33;;;5.60;83.10;;;;;;4942836;29;20876;-87
2022/01/18 22:09:21;;;;;;;48.83;23.03;;;5.70;83.30;;;;;;4950352;29;20259;-88
2022/01/18 22:11:47;;;;;;;57.65;23.42;;;5.50;83.60;;;;;;4942718;29;20184;-88
2022/01/18 22:14:13;;;;;;;51.43;22.67;;;5.50;83.90;;;;;;4941108;29;20193;-87
2022/01/18 22:16:38;;;;;;;47.80;22.00;;;5.40;84.20;;;;;;4940699;29;20208;-88
2022/01/18 22:19:04;;;;;;;46.50;25.50;;;5.60;84.30;;;;;;4938778;29;20180;-87
2022/01/18 22:21:30;;;;;;;43.63;23.30;;;5.70;84.00;;;;;;4947388;28;20234;-87
2022/01/18 22:23:55;;;;;;;49.50;23.53;;;5.70;83.90;;;;;;4958510;28;20255;-87
2022/01/18 22:26:22;;;;;;;41.67;22.80;;;5.70;84.00;;;;;;4957242;28;20208;-88
2022/01/18 22:28:49;;;;;;;45.03;23.52;;;5.50;83.80;;;;;;4977938;28;20270;-89
2022/01/18 22:31:15;;;;;;;56.45;23.48;;;5.40;84.20;;;;;;4944220;29;20181;-88
2022/01/18 22:33:40;;;;;;;50.25;23.77;;;5.50;84.50;;;;;;4943275;29;20268;-88
2022/01/18 22:36:07;;;;;;;57.57;23.17;;;5.50;84.60;;;;;;4948950;29;20220;-89
2022/01/18 22:38:34;;;;;;;45.20;24.80;;;5.70;84.40;;;;;;4961087;29;20434;-89
2022/01/18 22:41:12;;;;;;;44.00;21.10;;;5.90;84.00;;;;;;4959641;28;20184;-89
2022/01/18 22:43:39;;;;;;;45.88;19.98;;;5.90;83.70;;;;;;4960447;28;20168;-87
2022/01/18 22:46:06;;;;;;;44.25;21.83;;;5.80;83.30;;;;;;4959810;28;20204;-88
2022/01/18 22:48:31;;;;;;;42.35;20.95;;;5.70;83.30;;;;;;4959048;28;20202;-88
2022/01/18 22:50:57;;;;;;;43.70;24.93;;;5.80;83.20;;;;;;4958776;28;20195;-87
2022/01/18 22:53:23;;;;;;;58.03;23.23;;;5.70;83.40;;;;;;4957702;28;20184;-88
2022/01/18 22:55:49;;;;;;;46.17;22.07;;;5.60;83.50;;;;;;4981969;28;20204;-90
2022/01/18 22:58:14;;;;;;;45.53;22.93;;;5.60;83.50;;;;;;4952654;29;20444;-89
2022/01/18 23:00:51;;;;;;;43.47;20.43;;;5.60;83.50;;;;;;4941758;29;20654;-89
2022/01/18 23:03:18;;;;;;;49.85;21.80;;;5.80;83.40;;;;;;4937923;29;20200;-89
2022/01/18 23:05:45;;;;;;;39.20;19.85;;;5.70;83.10;;;;;;4943117;29;20268;-88
2022/01/18 23:08:11;;;;;;;38.75;19.65;;;5.80;83.20;;;;;;4951092;29;20191;-88
2022/01/18 23:10:39;;;;;;;46.20;21.57;;;5.70;83.20;;;;;;4958401;29;20185;-88
2022/01/18 23:13:06;;;;;;;35.45;21.48;;;5.80;83.10;;;;;;4962949;28;20832;-88
2022/01/18 23:15:31;;;;;;;56.67;19.95;;;5.90;82.80;;;;;;4959915;28;20583;-89
2022/01/18 23:17:58;;;;;;;42.60;21.57;;;5.90;82.40;;;;;;4960812;28;20182;-89
2022/01/18 23:20:23;;;;;;;54.53;24.70;;;5.90;82.10;;;;;;4962249;28;20176;-89
2022/01/18 23:22:49;;;;;;;42.20;21.10;;;5.70;82.10;;;;;;4968238;28;20207;-89
2022/01/18 23:25:15;;;;;;;50.20;23.77;;;5.60;82.30;;;;;;4970940;28;20224;-89
2022/01/18 23:27:40;;;;;;;50.10;21.07;;;5.50;82.60;;;;;;4964787;28;20735;-88
2022/01/18 23:30:07;;;;;;;50.53;22.90;;;5.40;82.80;;;;;;4960194;28;20184;-88
2022/01/18 23:32:33;;;;;;;57.40;23.50;;;5.40;82.90;;;;;;4960032;28;20191;-88
2022/01/18 23:34:59;;;;;;;50.50;22.27;;;5.30;83.30;;;;;;4960985;28;20180;-88
2022/01/18 23:37:27;;;;;;;51.83;23.53;;;5.40;83.20;;;;;;4961079;28;20604;-88
2022/01/18 23:40:09;;;;;;;81.57;23.83;;;5.40;83.20;;;;;;4959125;28;20427;-88
2022/01/18 23:42:35;;;;;;;46.50;22.25;;;5.50;83.00;;;;;;4958773;28;20180;-88
2022/01/18 23:45:01;;;;;;;56.37;24.20;;;5.40;82.90;;;;;;4958720;28;20183;-88
2022/01/18 23:47:27;;;;;;;58.60;24.70;;;5.30;83.10;;;;;;4976068;28;20211;-88
2022/01/18 23:49:52;;;;;;;52.63;23.47;;;5.30;83.30;;;;;;4959272;28;20579;-88
2022/01/18 23:52:18;;;;;;;58.13;22.50;;;5.10;83.50;;;;;;4958907;28;20668;-88
2022/01/18 23:54:44;;;;;;;55.27;25.53;;;5.10;83.60;;;;;;4958472;28;20191;-88
2022/01/18 23:57:09;;;;;;;52.60;23.20;;;5.00;83.90;;;;;;4958837;28;20699;-87
2022/01/18 23:59:36;;;;;;;62.63;25.10;;;4.90;84.20;;;;;;4975866;28;20537;-87
